Main page
METAR-TAF:

METAR-TAF

Airports :

Shiraz, Iran

Shiraz International Airport

latitude: 29-32N, longitude: 052-35E, elevation: 1486 m

Current weather observation

The report was made 29 minutes ago, at 01:30 UTC
Calm wind
Temperature 20°C
Humidity 24%
Pressure 1013 hPa
Visibility 10 km or more
no clouds below 1500 m and no cumulonimbus

METAR: OISS 290130Z 00000KT CAVOK 20/M01 Q1012 A2991

Time: 06:29 (01:59 UTC)

Forecast

The report was made 2 hours and 59 minutes ago, at 23:00 UTC
Forecast valid from 29 at 00 UTC to 30 at 06 UTC
Wind 6 kt from the Northeast
Visibility 10 km or more
no clouds below 1500 m and no cumulonimbus

TAF: OISS 282300Z 2900/3006 05003MPS CAVOK

Weather observations and forecasts of more than 4000 airports (METAR and TAF reports).

The available stations are represented by yellow and red dots on the map.

Hover mouse over dot to see the name of the station.

Then click to see weather observations and forecasts.

To change the map : click on the green buttons with a black cross to zoom in, on the green button with a dash to zoom out, or on the green arrows for adjacent maps.


METAR-TAF: